Time;durP1;ratioP1;P1;durP2;ratioP2;P2;SDS_P1;SDS_P2;PMS_P1;PMS_P2;Temp;Humidity;BMP_temperature;BMP_pressure;BME280_temperature;BME280_humidity;BME280_pressure;Samples;Min_cycle;Max_cycle;Signal;HPM_P1;HPM_P2
2022/04/14 00:00:34;;;;;;;22.52;10.52;;;;;;;;;;5008150;28;20533;-73
2022/04/14 00:02:59;;;;;;;21.35;10.20;;;;;;;;;;5009504;28;20018;-72
2022/04/14 00:05:25;;;;;;;28.98;10.27;;;;;;;;;;5009348;28;20492;-72
2022/04/14 00:07:52;;;;;;;23.67;10.23;;;;;;;;;;5008313;28;20033;-73
2022/04/14 00:10:17;;;;;;;24.17;10.43;;;;;;;;;;5009120;28;20034;-73
2022/04/14 00:12:43;;;;;;;24.13;10.40;;;;;;;;;;5010897;28;20042;-72
2022/04/14 00:15:13;;;;;;;21.05;10.00;;;;;;;;;;5011744;28;20025;-72
2022/04/14 00:17:38;;;;;;;17.65;9.75;;;;;;;;;;5013171;28;20398;-72
2022/04/14 00:20:07;;;;;;;22.67;11.25;;;;;;;;;;5011895;28;20042;-72
2022/04/14 00:22:34;;;;;;;16.65;9.77;;;;;;;;;;5012802;28;20115;-72
2022/04/14 00:24:59;;;;;;;23.30;10.15;;;;;;;;;;5028241;28;20474;-72
2022/04/14 00:27:25;;;;;;;20.48;10.50;;;;;;;;;;5011696;28;20041;-73
2022/04/14 00:29:51;;;;;;;18.42;10.75;;;;;;;;;;5011772;28;20466;-72
2022/04/14 00:32:16;;;;;;;18.58;10.20;;;;;;;;;;5011181;28;20454;-72
2022/04/14 00:34:42;;;;;;;19.95;11.07;;;;;;;;;;5011741;28;20430;-72
2022/04/14 00:37:10;;;;;;;21.05;9.80;;;;;;;;;;5011331;28;20056;-72
2022/04/14 00:39:36;;;;;;;19.48;9.73;;;;;;;;;;5011510;28;20037;-73
2022/04/14 00:42:08;;;;;;;18.70;10.15;;;;;;;;;;5028135;28;20029;-72
2022/04/14 00:44:34;;;;;;;19.35;11.63;;;;;;;;;;5011829;28;20084;-71
2022/04/14 00:46:59;;;;;;;22.65;12.18;;;;;;;;;;5011388;28;20491;-72
2022/04/14 00:49:25;;;;;;;18.25;11.23;;;;;;;;;;5011241;28;20030;-72
2022/04/14 00:51:52;;;;;;;20.15;11.70;;;;;;;;;;5011249;28;20022;-72
2022/04/14 00:54:17;;;;;;;21.20;11.52;;;;;;;;;;5010907;28;20056;-73
2022/04/14 00:56:43;;;;;;;18.23;10.98;;;;;;;;;;5011459;28;20125;-72
2022/04/14 00:59:08;;;;;;;21.65;11.20;;;;;;;;;;5010995;28;20153;-73
2022/04/14 01:01:34;;;;;;;19.52;10.68;;;;;;;;;;5012627;28;20037;-71
2022/04/14 01:04:00;;;;;;;21.17;11.57;;;;;;;;;;5011076;28;20026;-73
2022/04/14 01:06:27;;;;;;;19.80;11.43;;;;;;;;;;5010903;28;20477;-72
2022/04/14 01:11:38;;;;;;;19.65;10.52;;;;;;;;;;5012302;28;20037;-72
2022/04/14 01:14:03;;;;;;;22.53;11.90;;;;;;;;;;5012137;28;20041;-72
2022/04/14 01:16:29;;;;;;;28.23;12.05;;;;;;;;;;5010912;28;20085;-73
2022/04/14 01:18:54;;;;;;;23.67;11.87;;;;;;;;;;5011103;28;20552;-73
2022/04/14 01:21:21;;;;;;;25.33;14.80;;;;;;;;;;5010739;28;20476;-71
2022/04/14 01:23:48;;;;;;;17.50;13.07;;;;;;;;;;5010209;28;20041;-73
2022/04/14 01:26:14;;;;;;;18.60;12.10;;;;;;;;;;4994368;28;20508;-72
2022/04/14 01:28:39;;;;;;;20.97;11.20;;;;;;;;;;5010800;28;20025;-72
2022/04/14 01:31:05;;;;;;;20.17;11.23;;;;;;;;;;5010574;28;20032;-72
2022/04/14 01:33:32;;;;;;;20.75;10.93;;;;;;;;;;5010261;28;20528;-72
2022/04/14 01:35:57;;;;;;;30.93;11.17;;;;;;;;;;5015738;28;20088;-72
2022/04/14 01:38:23;;;;;;;15.63;9.73;;;;;;;;;;5009874;28;20033;-71
2022/04/14 01:40:48;;;;;;;18.50;10.87;;;;;;;;;;5010307;28;20026;-72
2022/04/14 01:43:14;;;;;;;15.73;9.50;;;;;;;;;;5009986;28;20030;-72
2022/04/14 01:45:43;;;;;;;18.73;9.63;;;;;;;;;;5010467;28;20029;-72
2022/04/14 01:48:09;;;;;;;18.37;9.63;;;;;;;;;;5026934;28;20040;-72
2022/04/14 01:50:35;;;;;;;26.97;10.60;;;;;;;;;;5010406;28;20388;-72
2022/04/14 01:53:00;;;;;;;18.57;10.77;;;;;;;;;;5011375;28;20033;-72
2022/04/14 01:55:27;;;;;;;16.03;10.03;;;;;;;;;;5011384;28;20346;-73
2022/04/14 01:57:54;;;;;;;20.53;10.03;;;;;;;;;;5012016;28;20097;-72
2022/04/14 02:00:19;;;;;;;22.60;10.10;;;;;;;;;;5011332;28;20518;-72
2022/04/14 02:02:45;;;;;;;22.50;9.97;;;;;;;;;;5010119;28;20359;-72
2022/04/14 02:05:10;;;;;;;19.37;10.40;;;;;;;;;;5009797;28;20125;-72
2022/04/14 02:07:36;;;;;;;23.47;11.20;;;;;;;;;;5010176;28;20120;-73
2022/04/14 02:10:03;;;;;;;26.13;13.60;;;;;;;;;;5010033;28;20394;-72
2022/04/14 02:12:29;;;;;;;21.67;12.57;;;;;;;;;;5009400;28;20026;-72
2022/04/14 02:14:54;;;;;;;23.50;11.23;;;;;;;;;;5009955;28;20397;-72
2022/04/14 02:17:20;;;;;;;20.40;11.30;;;;;;;;;;5009708;28;20025;-72
2022/04/14 02:19:47;;;;;;;18.47;10.10;;;;;;;;;;5009632;28;20535;-73
2022/04/14 02:22:13;;;;;;;21.20;10.47;;;;;;;;;;5009342;28;20038;-73
2022/04/14 02:24:38;;;;;;;20.13;10.13;;;;;;;;;;5010991;28;20025;-72
2022/04/14 02:27:04;;;;;;;20.33;11.87;;;;;;;;;;5010318;28;20525;-71
2022/04/14 02:29:30;;;;;;;23.17;11.70;;;;;;;;;;5011295;28;20161;-71
2022/04/14 02:31:57;;;;;;;28.60;13.20;;;;;;;;;;5010130;28;20500;-71
2022/04/14 02:34:26;;;;;;;18.23;9.00;;;;;;;;;;5009044;28;20092;-72
2022/04/14 02:36:52;;;;;;;21.33;10.57;;;;;;;;;;5007524;28;20033;-71
2022/04/14 02:39:18;;;;;;;17.23;10.30;;;;;;;;;;5009889;28;20026;-73
2022/04/14 02:41:45;;;;;;;24.03;9.23;;;;;;;;;;5011923;28;20030;-72
2022/04/14 02:44:11;;;;;;;17.97;9.23;;;;;;;;;;5025732;28;20787;-73
2022/04/14 02:46:36;;;;;;;16.23;9.37;;;;;;;;;;5025846;28;20037;-73
2022/04/14 02:49:02;;;;;;;16.77;8.63;;;;;;;;;;5026060;28;20034;-73
2022/04/14 02:51:27;;;;;;;17.13;9.80;;;;;;;;;;5025587;28;20033;-72
2022/04/14 02:53:53;;;;;;;18.83;10.23;;;;;;;;;;5025520;28;20036;-72
2022/04/14 02:56:18;;;;;;;18.77;11.83;;;;;;;;;;5008865;28;20030;-72
2022/04/14 02:58:46;;;;;;;18.40;9.97;;;;;;;;;;5009337;28;20029;-71
2022/04/14 03:01:11;;;;;;;29.60;11.07;;;;;;;;;;5009363;28;20022;-72
2022/04/14 03:03:37;;;;;;;28.57;10.80;;;;;;;;;;5008604;28;20060;-72
2022/04/14 03:06:05;;;;;;;41.10;11.27;;;;;;;;;;5009180;28;20025;-72
2022/04/14 03:08:32;;;;;;;27.83;10.87;;;;;;;;;;5010560;28;20026;-72
2022/04/14 03:10:57;;;;;;;28.27;11.07;;;;;;;;;;5008927;28;20037;-71
2022/04/14 03:13:24;;;;;;;76.13;19.40;;;;;;;;;;5010038;28;20034;-73
2022/04/14 03:15:50;;;;;;;24.83;10.90;;;;;;;;;;5008836;28;20037;-72
2022/04/14 03:18:17;;;;;;;23.83;10.97;;;;;;;;;;5008821;28;20458;-72
2022/04/14 03:20:42;;;;;;;26.33;11.13;;;;;;;;;;5009076;28;20037;-71
2022/04/14 03:23:08;;;;;;;19.70;10.10;;;;;;;;;;5008608;28;20054;-73
2022/04/14 03:25:33;;;;;;;21.63;10.07;;;;;;;;;;5009180;28;20030;-73
2022/04/14 03:27:59;;;;;;;20.93;10.97;;;;;;;;;;4992861;28;20029;-72
2022/04/14 03:30:24;;;;;;;19.80;9.67;;;;;;;;;;5008879;28;20058;-72
2022/04/14 03:32:50;;;;;;;23.27;10.77;;;;;;;;;;5009942;28;20029;-73
2022/04/14 03:35:16;;;;;;;18.63;10.77;;;;;;;;;;5009540;28;20036;-72
2022/04/14 03:37:42;;;;;;;20.23;10.23;;;;;;;;;;5010865;28;20057;-72
2022/04/14 03:40:09;;;;;;;23.40;10.40;;;;;;;;;;5010465;28;20191;-73
2022/04/14 03:42:36;;;;;;;17.83;10.30;;;;;;;;;;5008122;28;20030;-72
2022/04/14 03:45:05;;;;;;;19.13;11.33;;;;;;;;;;5008475;28;20021;-72
2022/04/14 03:47:30;;;;;;;19.87;11.40;;;;;;;;;;5008448;28;20030;-71
2022/04/14 03:49:56;;;;;;;22.40;11.30;;;;;;;;;;5008588;28;20025;-72
2022/04/14 03:52:23;;;;;;;18.03;10.57;;;;;;;;;;5007858;28;20394;-72
2022/04/14 03:54:48;;;;;;;21.80;11.40;;;;;;;;;;5008595;28;20084;-72
2022/04/14 03:57:14;;;;;;;31.83;13.23;;;;;;;;;;5007936;28;20029;-73
2022/04/14 03:59:39;;;;;;;22.63;11.20;;;;;;;;;;5010812;28;20028;-72
2022/04/14 04:02:05;;;;;;;31.17;12.53;;;;;;;;;;5007975;28;20358;-72
2022/04/14 04:04:32;;;;;;;21.83;11.83;;;;;;;;;;5008148;28;20367;-72
2022/04/14 04:06:59;;;;;;;24.90;11.43;;;;;;;;;;5007926;28;20128;-72
2022/04/14 04:09:26;;;;;;;27.73;12.07;;;;;;;;;;5007953;28;20026;-71
2022/04/14 04:11:53;;;;;;;20.47;11.17;;;;;;;;;;5008005;28;20025;-72
2022/04/14 04:14:19;;;;;;;20.83;11.57;;;;;;;;;;5007926;28;20103;-72
2022/04/14 04:16:45;;;;;;;22.23;11.73;;;;;;;;;;5009325;28;20029;-73
2022/04/14 04:19:12;;;;;;;25.73;11.77;;;;;;;;;;5009559;28;20072;-72
2022/04/14 04:21:37;;;;;;;25.27;11.90;;;;;;;;;;5007765;28;20163;-73
2022/04/14 04:24:03;;;;;;;23.83;13.27;;;;;;;;;;5007659;28;20144;-71
2022/04/14 04:26:29;;;;;;;23.27;11.67;;;;;;;;;;5007621;28;20469;-71
2022/04/14 04:28:54;;;;;;;23.47;11.87;;;;;;;;;;5007886;28;20024;-73
2022/04/14 04:31:20;;;;;;;23.47;11.53;;;;;;;;;;5007249;28;20026;-73
2022/04/14 04:33:47;;;;;;;27.23;12.03;;;;;;;;;;5007626;28;20025;-72
2022/04/14 04:36:13;;;;;;;23.27;11.70;;;;;;;;;;5007821;28;20346;-71
2022/04/14 04:38:38;;;;;;;27.63;12.30;;;;;;;;;;5007820;28;20041;-72
2022/04/14 04:41:05;;;;;;;25.50;12.07;;;;;;;;;;5008107;28;20100;-72
2022/04/14 04:43:31;;;;;;;36.07;14.03;;;;;;;;;;5023699;28;20036;-72
2022/04/14 04:45:56;;;;;;;31.27;12.93;;;;;;;;;;5008037;28;20319;-73
2022/04/14 04:48:22;;;;;;;34.13;12.90;;;;;;;;;;5007691;28;20470;-72
2022/04/14 04:50:49;;;;;;;29.50;11.47;;;;;;;;;;5009381;28;20026;-72
2022/04/14 04:53:14;;;;;;;22.80;11.43;;;;;;;;;;5008793;28;20443;-73
2022/04/14 04:55:40;;;;;;;27.70;12.07;;;;;;;;;;5007242;28;20061;-72
2022/04/14 04:58:06;;;;;;;25.97;11.50;;;;;;;;;;5010688;28;20026;-73
2022/04/14 05:00:32;;;;;;;25.37;11.27;;;;;;;;;;5012382;28;20549;-72
2022/04/14 05:02:58;;;;;;;27.37;11.37;;;;;;;;;;4989540;28;20397;-72
2022/04/14 05:05:24;;;;;;;22.27;12.93;;;;;;;;;;5025204;28;20104;-71
2022/04/14 05:07:50;;;;;;;22.80;11.63;;;;;;;;;;5004625;28;20026;-72
2022/04/14 05:10:17;;;;;;;24.60;12.97;;;;;;;;;;4991359;28;20113;-72
2022/04/14 05:12:42;;;;;;;23.53;12.13;;;;;;;;;;4990993;28;20241;-71
2022/04/14 05:15:10;;;;;;;25.23;11.73;;;;;;;;;;4993758;28;20037;-72
2022/04/14 05:17:37;;;;;;;20.67;11.70;;;;;;;;;;4990768;28;20026;-72
2022/04/14 05:20:03;;;;;;;23.23;11.77;;;;;;;;;;4999549;28;20088;-73
2022/04/14 05:22:28;;;;;;;34.17;13.53;;;;;;;;;;5009558;28;20058;-73
2022/04/14 05:24:54;;;;;;;27.03;12.83;;;;;;;;;;5009104;28;20030;-73
2022/04/14 05:27:19;;;;;;;31.30;12.23;;;;;;;;;;5010364;28;20033;-71
2022/04/14 05:29:45;;;;;;;32.07;12.60;;;;;;;;;;5016418;28;20466;-72
2022/04/14 05:32:11;;;;;;;23.77;12.43;;;;;;;;;;5004007;28;20474;-73
2022/04/14 05:34:37;;;;;;;22.43;13.93;;;;;;;;;;5025899;28;20029;-73
2022/04/14 05:37:02;;;;;;;29.07;15.53;;;;;;;;;;5000736;28;20034;-72
2022/04/14 05:39:28;;;;;;;27.10;12.90;;;;;;;;;;4997533;28;20166;-72
2022/04/14 05:41:53;;;;;;;35.53;15.27;;;;;;;;;;5010138;28;20033;-72
2022/04/14 05:44:19;;;;;;;24.57;13.33;;;;;;;;;;5022649;28;20277;-71
2022/04/14 05:46:45;;;;;;;25.20;14.07;;;;;;;;;;4993443;28;20041;-72
2022/04/14 05:49:11;;;;;;;35.80;14.67;;;;;;;;;;5009849;28;20108;-73
2022/04/14 05:51:37;;;;;;;22.77;13.53;;;;;;;;;;5024394;28;20116;-73
2022/04/14 05:54:05;;;;;;;27.77;14.07;;;;;;;;;;5024132;28;20505;-73
2022/04/14 05:56:31;;;;;;;23.37;14.23;;;;;;;;;;5024047;28;20026;-73
2022/04/14 05:58:57;;;;;;;20.77;13.80;;;;;;;;;;5004504;28;20118;-73
2022/04/14 06:01:25;;;;;;;28.60;14.20;;;;;;;;;;5005357;28;20027;-71
2022/04/14 06:03:54;;;;;;;33.87;14.23;;;;;;;;;;4988730;28;20029;-73
2022/04/14 06:06:23;;;;;;;26.67;13.93;;;;;;;;;;4991060;28;20119;-72
2022/04/14 06:08:52;;;;;;;37.77;16.40;;;;;;;;;;4988602;28;20119;-73
2022/04/14 06:11:28;;;;;;;33.13;15.97;;;;;;;;;;4997527;28;20030;-73
2022/04/14 06:13:55;;;;;;;30.20;13.73;;;;;;;;;;5024499;28;20060;-72
2022/04/14 06:16:21;;;;;;;32.97;17.50;;;;;;;;;;5025178;28;20414;-72
2022/04/14 06:18:53;;;;;;;34.80;15.10;;;;;;;;;;5022565;28;20022;-73
2022/04/14 06:21:18;;;;;;;28.98;14.88;;;;;;;;;;4989875;28;20030;-72
2022/04/14 06:23:45;;;;;;;28.33;15.87;;;;;;;;;;4988968;28;20065;-72
2022/04/14 06:26:11;;;;;;;26.80;15.63;;;;;;;;;;4990735;28;20078;-74
2022/04/14 06:28:38;;;;;;;29.60;15.50;;;;;;;;;;4988752;28;20058;-72
2022/04/14 06:31:09;;;;;;;24.43;15.10;;;;;;;;;;4990372;28;20490;-72
2022/04/14 06:33:35;;;;;;;32.30;17.40;;;;;;;;;;4993282;28;20026;-72
2022/04/14 06:36:01;;;;;;;28.92;15.35;;;;;;;;;;5015212;28;20022;-72
2022/04/14 06:38:27;;;;;;;29.23;15.53;;;;;;;;;;5009408;28;20030;-72
2022/04/14 06:40:56;;;;;;;27.50;15.90;;;;;;;;;;5008516;28;20021;-72
2022/04/14 06:43:24;;;;;;;28.50;15.77;;;;;;;;;;5002906;28;20034;-72
2022/04/14 06:45:51;;;;;;;27.83;16.50;;;;;;;;;;4998648;28;20030;-72
2022/04/14 06:48:17;;;;;;;31.27;15.87;;;;;;;;;;5009216;28;20097;-73
2022/04/14 06:50:43;;;;;;;29.03;17.00;;;;;;;;;;5006595;28;20105;-73
2022/04/14 06:53:09;;;;;;;31.23;15.77;;;;;;;;;;5006750;28;20029;-73
2022/04/14 06:55:37;;;;;;;29.83;16.23;;;;;;;;;;5008278;28;20026;-72
2022/04/14 06:58:03;;;;;;;38.27;17.77;;;;;;;;;;5024270;28;20033;-73
2022/04/14 07:00:30;;;;;;;31.13;15.90;;;;;;;;;;4993465;28;20125;-73
2022/04/14 07:02:57;;;;;;;27.58;16.52;;;;;;;;;;5004787;28;20115;-73
2022/04/14 07:05:27;;;;;;;34.42;17.63;;;;;;;;;;5020114;28;20036;-72
2022/04/14 07:07:55;;;;;;;34.45;16.35;;;;;;;;;;5008388;28;20026;-73
2022/04/14 07:10:27;;;;;;;40.78;17.45;;;;;;;;;;5025497;28;20111;-72
2022/04/14 07:12:53;;;;;;;;;;;;;;;;;;5023767;28;20026;-71
2022/04/14 07:15:25;;;;;;;35.95;17.60;;;;;;;;;;5006591;28;19920;-73
2022/04/14 07:17:51;;;;;;;39.70;17.60;;;;;;;;;;5000678;28;20041;-72
2022/04/14 07:20:17;;;;;;;33.88;18.30;;;;;;;;;;4995772;28;20587;-72
2022/04/14 07:22:52;;;;;;;29.35;16.35;;;;;;;;;;5000113;28;20164;-76
2022/04/14 07:25:19;;;;;;;36.45;17.10;;;;;;;;;;4997682;28;20439;-74
2022/04/14 07:27:48;;;;;;;44.47;17.60;;;;;;;;;;5005628;28;20034;-73
2022/04/14 07:30:14;;;;;;;32.70;16.17;;;;;;;;;;4998431;28;20090;-73
2022/04/14 07:32:45;;;;;;;38.55;16.15;;;;;;;;;;5002329;28;20129;-73
2022/04/14 07:35:16;;;;;;;35.83;15.88;;;;;;;;;;5020024;28;20022;-73
2022/04/14 07:37:44;;;;;;;27.00;14.35;;;;;;;;;;4995470;28;20501;-72
2022/04/14 07:40:14;;;;;;;26.17;15.63;;;;;;;;;;4999759;28;20025;-73
2022/04/14 07:42:46;;;;;;;32.20;16.27;;;;;;;;;;5003980;28;20282;-74
2022/04/14 07:45:13;;;;;;;;;;;;;;;;;;4989218;28;20087;-72
2022/04/14 07:47:44;;;;;;;32.83;15.45;;;;;;;;;;5014957;28;20000;-72
2022/04/14 07:50:12;;;;;;;31.58;16.35;;;;;;;;;;4994781;28;20026;-73
2022/04/14 07:52:54;;;;;;;28.73;15.77;;;;;;;;;;4998456;28;20490;-73
2022/04/14 07:55:28;;;;;;;35.40;16.80;;;;;;;;;;5001393;28;20029;-74
2022/04/14 07:57:56;;;;;;;30.00;15.27;;;;;;;;;;4991339;28;20046;-73
2022/04/14 08:00:24;;;;;;;28.17;16.50;;;;;;;;;;4997635;28;20038;-72
2022/04/14 08:02:59;;;;;;;33.75;15.63;;;;;;;;;;5000428;28;20134;-74
2022/04/14 08:05:36;;;;;;;29.92;16.30;;;;;;;;;;4992222;28;20030;-73
2022/04/14 08:08:08;;;;;;;28.60;15.30;;;;;;;;;;4994646;28;20037;-72
2022/04/14 08:10:35;;;;;;;33.35;15.98;;;;;;;;;;5012933;28;20671;-73
2022/04/14 08:13:02;;;;;;;27.75;16.40;;;;;;;;;;4995491;28;20069;-72
2022/04/14 08:15:34;;;;;;;31.35;16.85;;;;;;;;;;4998586;28;20045;-73
2022/04/14 08:18:02;;;;;;;28.13;15.82;;;;;;;;;;5007469;28;20030;-74
2022/04/14 08:20:35;;;;;;;34.80;15.98;;;;;;;;;;4997401;28;20512;-74
2022/04/14 08:23:02;;;;;;;29.52;15.65;;;;;;;;;;4999040;28;20050;-73
2022/04/14 08:25:35;;;;;;;31.85;14.30;;;;;;;;;;4998801;28;20111;-73
2022/04/14 08:28:04;;;;;;;38.33;17.27;;;;;;;;;;4994012;28;20026;-72
2022/04/14 08:30:33;;;;;;;34.92;15.13;;;;;;;;;;5007088;28;20033;-73
2022/04/14 08:33:01;;;;;;;26.20;14.40;;;;;;;;;;5004720;28;20022;-72
2022/04/14 08:35:29;;;;;;;26.17;14.40;;;;;;;;;;5010270;28;20037;-73
2022/04/14 08:37:56;;;;;;;28.10;14.60;;;;;;;;;;4998305;28;20088;-72
2022/04/14 08:40:22;;;;;;;29.23;15.05;;;;;;;;;;5010237;28;20033;-72
2022/04/14 08:42:51;;;;;;;27.13;14.95;;;;;;;;;;5004878;28;20028;-73
2022/04/14 08:45:29;;;;;;;41.50;16.20;;;;;;;;;;5001865;28;20389;-72
2022/04/14 08:48:02;;;;;;;39.58;16.88;;;;;;;;;;4999703;28;20514;-73
2022/04/14 08:50:31;;;;;;;31.08;16.10;;;;;;;;;;5007524;28;20052;-74
2022/04/14 08:52:58;;;;;;;26.48;15.43;;;;;;;;;;4986922;28;20041;-73
2022/04/14 08:55:26;;;;;;;26.90;14.65;;;;;;;;;;5013662;28;20029;-73
2022/04/14 08:57:54;;;;;;;32.90;15.63;;;;;;;;;;5006780;28;20342;-73
2022/04/14 09:00:23;;;;;;;35.38;15.20;;;;;;;;;;5004307;28;20247;-73
2022/04/14 09:02:51;;;;;;;37.55;15.13;;;;;;;;;;4996187;28;20053;-72
2022/04/14 09:05:17;;;;;;;31.08;15.65;;;;;;;;;;4999860;28;20037;-73
2022/04/14 09:07:53;;;;;;;31.73;15.27;;;;;;;;;;4995063;28;20033;-74
2022/04/14 09:10:19;;;;;;;30.92;15.95;;;;;;;;;;4999351;28;20482;-73
2022/04/14 09:12:50;;;;;;;30.48;15.40;;;;;;;;;;5021790;28;20026;-73
2022/04/14 09:15:23;;;;;;;37.53;15.18;;;;;;;;;;5002500;28;20030;-73
2022/04/14 09:17:49;;;;;;;28.48;14.52;;;;;;;;;;5020055;28;20029;-73
2022/04/14 09:20:37;;;;;;;31.25;15.07;;;;;;;;;;5016800;28;20285;-73
2022/04/14 09:23:11;;;;;;;29.40;15.23;;;;;;;;;;5017669;28;20494;-73
2022/04/14 09:25:38;;;;;;;38.97;16.00;;;;;;;;;;5008194;28;20670;-71
2022/04/14 09:28:17;;;;;;;32.58;15.30;;;;;;;;;;5015295;28;20054;-73
2022/04/14 09:31:04;;;;;;;28.40;15.60;;;;;;;;;;5007046;28;20057;-74
2022/04/14 09:33:32;;;;;;;40.03;16.13;;;;;;;;;;5001691;28;20370;-73
2022/04/14 09:36:20;;;;;;;26.42;14.68;;;;;;;;;;4968361;28;20044;-74
2022/04/14 09:39:07;;;;;;;33.15;14.65;;;;;;;;;;5009087;28;20080;-73
2022/04/14 09:41:41;;;;;;;30.98;15.77;;;;;;;;;;5005322;28;20099;-74
2022/04/14 09:44:12;;;;;;;28.85;14.77;;;;;;;;;;5019091;28;20057;-74
2022/04/14 09:46:44;;;;;;;34.03;15.50;;;;;;;;;;5021191;28;20037;-73
2022/04/14 09:49:10;;;;;;;;;;;;;;;;;;5000454;28;20034;-73
2022/04/14 09:51:40;;;;;;;27.23;13.35;;;;;;;;;;5013973;28;19921;-73
2022/04/14 09:54:17;;;;;;;31.33;14.50;;;;;;;;;;4984889;28;20034;-73
2022/04/14 09:56:55;;;;;;;27.33;14.30;;;;;;;;;;4998943;28;20038;-73
2022/04/14 09:59:25;;;;;;;27.90;13.20;;;;;;;;;;4995165;28;20033;-74
2022/04/14 10:02:13;;;;;;;31.50;13.93;;;;;;;;;;5000713;28;20437;-74
2022/04/14 10:04:44;;;;;;;35.70;14.90;;;;;;;;;;5012663;28;20030;-74
2022/04/14 10:07:16;;;;;;;29.52;15.85;;;;;;;;;;5009311;28;20030;-73
2022/04/14 10:09:45;;;;;;;33.15;15.15;;;;;;;;;;4995974;28;20029;-72
2022/04/14 10:12:19;;;;;;;29.30;15.15;;;;;;;;;;5020884;28;20362;-73
2022/04/14 10:15:08;;;;;;;30.15;15.98;;;;;;;;;;5010184;28;20029;-74
2022/04/14 10:17:38;;;;;;;27.33;14.05;;;;;;;;;;4997294;28;20048;-74
2022/04/14 10:20:07;;;;;;;34.88;17.05;;;;;;;;;;4991841;28;20112;-73
2022/04/14 10:22:33;;;;;;;25.77;14.02;;;;;;;;;;5003765;28;20047;-74
2022/04/14 10:25:00;;;;;;;27.95;14.30;;;;;;;;;;5000853;28;20521;-74
2022/04/14 10:27:26;;;;;;;34.90;14.35;;;;;;;;;;5001567;28;20030;-75
2022/04/14 10:29:52;;;;;;;40.13;15.00;;;;;;;;;;4992621;28;20141;-73
2022/04/14 10:32:18;;;;;;;33.20;15.00;;;;;;;;;;5009604;28;20030;-73
2022/04/14 10:34:46;;;;;;;31.02;13.57;;;;;;;;;;5005303;28;20054;-73
2022/04/14 10:37:46;;;;;;;27.95;14.07;;;;;;;;;;4977869;28;20042;-72
2022/04/14 10:40:16;;;;;;;25.75;13.13;;;;;;;;;;4994912;28;20030;-73
2022/04/14 10:43:08;;;;;;;24.30;11.40;;;;;;;;;;4998228;28;20454;-73
2022/04/14 10:45:48;;;;;;;25.17;12.27;;;;;;;;;;4988412;28;20707;-73
2022/04/14 10:48:32;;;;;;;;;;;;;;;;;;4992550;28;20091;-73
2022/04/14 10:51:24;;;;;;;23.20;12.02;;;;;;;;;;5003220;28;19921;-73
2022/04/14 10:53:59;;;;;;;22.00;12.60;;;;;;;;;;5008359;28;20065;-73
2022/04/14 10:56:37;;;;;;;24.52;12.70;;;;;;;;;;4998702;28;20100;-73
2022/04/14 10:59:43;;;;;;;24.85;12.95;;;;;;;;;;4995186;28;20053;-74
2022/04/14 11:02:10;;;;;;;25.52;11.63;;;;;;;;;;4997616;28;20049;-73
2022/04/14 11:04:49;;;;;;;25.25;11.70;;;;;;;;;;5006887;28;20465;-73
2022/04/14 11:07:27;;;;;;;23.20;11.25;;;;;;;;;;5009093;28;20714;-72
2022/04/14 11:09:59;;;;;;;28.58;13.75;;;;;;;;;;5004091;28;20029;-74
2022/04/14 11:12:32;;;;;;;30.00;13.48;;;;;;;;;;4998302;28;20798;-73
2022/04/14 11:15:03;;;;;;;27.15;14.32;;;;;;;;;;5000480;28;20029;-73
2022/04/14 11:17:37;;;;;;;29.58;14.57;;;;;;;;;;4996355;28;20701;-72
2022/04/14 11:20:17;;;;;;;28.85;13.25;;;;;;;;;;4989342;28;20065;-72
2022/04/14 11:23:04;;;;;;;29.98;14.27;;;;;;;;;;4990105;28;20054;-72
2022/04/14 11:26:08;;;;;;;26.92;14.15;;;;;;;;;;4993330;28;20038;-72
2022/04/14 11:28:40;;;;;;;26.67;13.60;;;;;;;;;;4993328;28;20176;-73
2022/04/14 11:31:18;;;;;;;30.08;14.38;;;;;;;;;;4988474;28;20029;-73
2022/04/14 11:33:53;;;;;;;30.85;15.10;;;;;;;;;;4990688;28;20113;-73
2022/04/14 11:36:25;;;;;;;33.97;14.63;;;;;;;;;;4991842;28;20500;-73
2022/04/14 11:39:02;;;;;;;30.13;14.27;;;;;;;;;;5009134;28;20064;-73
2022/04/14 11:42:08;;;;;;;29.60;13.45;;;;;;;;;;5005230;28;20038;-73
2022/04/14 11:44:35;;;;;;;24.98;13.00;;;;;;;;;;4998757;28;20049;-75
2022/04/14 11:47:03;;;;;;;25.70;13.20;;;;;;;;;;5009959;28;20437;-73
2022/04/14 11:49:31;;;;;;;25.38;12.68;;;;;;;;;;5004010;28;20344;-73
2022/04/14 11:52:03;;;;;;;25.60;13.02;;;;;;;;;;5006187;28;20056;-73
2022/04/14 11:54:38;;;;;;;24.95;12.90;;;;;;;;;;4991392;28;20136;-72
2022/04/14 11:57:11;;;;;;;29.42;13.05;;;;;;;;;;4994991;28;20262;-73
2022/04/14 11:59:48;;;;;;;31.35;12.88;;;;;;;;;;4989611;28;20034;-74
2022/04/14 12:02:18;;;;;;;21.45;12.13;;;;;;;;;;5003468;28;20290;-73
2022/04/14 12:04:49;;;;;;;27.47;13.30;;;;;;;;;;5007414;28;20111;-73
2022/04/14 12:07:16;;;;;;;25.02;12.13;;;;;;;;;;5001942;28;20272;-73
2022/04/14 12:09:43;;;;;;;24.08;12.18;;;;;;;;;;4992924;28;20835;-73
2022/04/14 12:12:18;;;;;;;24.33;11.65;;;;;;;;;;4996172;28;20076;-72
2022/04/14 12:14:51;;;;;;;29.17;12.15;;;;;;;;;;5013335;28;20077;-71
2022/04/14 12:17:22;;;;;;;23.10;11.75;;;;;;;;;;4997313;28;20038;-72
2022/04/14 12:19:57;;;;;;;23.10;13.30;;;;;;;;;;5009611;28;20387;-73
2022/04/14 12:22:31;;;;;;;27.40;12.65;;;;;;;;;;4987731;28;20038;-73
2022/04/14 12:24:59;;;;;;;23.05;12.30;;;;;;;;;;5011763;28;20585;-72
2022/04/14 12:27:34;;;;;;;20.77;11.18;;;;;;;;;;5010868;28;20033;-73
2022/04/14 12:30:09;;;;;;;28.02;12.57;;;;;;;;;;4991762;28;20033;-74
2022/04/14 12:32:35;;;;;;;24.98;12.75;;;;;;;;;;5015536;28;20030;-72
2022/04/14 12:35:06;;;;;;;21.60;12.10;;;;;;;;;;4994863;28;20022;-74
2022/04/14 12:37:41;;;;;;;33.83;14.93;;;;;;;;;;4995358;28;20038;-73
2022/04/14 12:40:13;;;;;;;31.90;13.40;;;;;;;;;;4980038;28;20430;-72
2022/04/14 12:42:40;;;;;;;27.08;13.10;;;;;;;;;;4995403;28;20030;-73
2022/04/14 12:45:09;;;;;;;25.45;11.73;;;;;;;;;;4994445;28;20061;-73
2022/04/14 12:47:55;;;;;;;25.63;12.20;;;;;;;;;;4993477;28;20030;-72
2022/04/14 12:50:24;;;;;;;24.20;12.48;;;;;;;;;;4994856;28;20156;-74
2022/04/14 12:53:02;;;;;;;30.83;12.25;;;;;;;;;;4994587;28;20043;-73
2022/04/14 12:55:30;;;;;;;25.65;12.70;;;;;;;;;;5009057;28;20030;-73
2022/04/14 12:58:22;;;;;;;26.98;11.82;;;;;;;;;;5000998;28;20090;-72
2022/04/14 13:01:05;;;;;;;27.52;11.38;;;;;;;;;;4990021;28;20041;-73
2022/04/14 13:03:51;;;;;;;24.13;11.80;;;;;;;;;;4996116;28;20066;-72
2022/04/14 13:06:21;;;;;;;20.15;10.98;;;;;;;;;;4994670;28;20049;-73
2022/04/14 13:08:49;;;;;;;25.90;10.60;;;;;;;;;;5006059;28;20184;-73
2022/04/14 13:11:49;;;;;;;24.10;10.32;;;;;;;;;;4994008;28;20034;-74
2022/04/14 13:14:22;;;;;;;24.10;12.15;;;;;;;;;;4995394;28;20482;-72
2022/04/14 13:16:50;;;;;;;22.70;11.68;;;;;;;;;;5008852;28;20038;-73
2022/04/14 13:19:16;;;;;;;29.60;12.05;;;;;;;;;;4999212;28;20044;-74
2022/04/14 13:21:43;;;;;;;25.65;11.73;;;;;;;;;;4999628;28;20025;-72
2022/04/14 13:24:15;;;;;;;23.80;11.68;;;;;;;;;;4992127;28;20061;-72
2022/04/14 13:26:45;;;;;;;30.50;13.32;;;;;;;;;;5015657;28;20116;-73
2022/04/14 13:29:12;;;;;;;19.60;10.48;;;;;;;;;;5012555;28;20505;-73
2022/04/14 13:31:41;;;;;;;25.52;11.57;;;;;;;;;;5016426;28;20560;-72
2022/04/14 13:34:13;;;;;;;24.10;11.65;;;;;;;;;;5001690;28;20506;-74
2022/04/14 13:36:40;;;;;;;28.52;11.75;;;;;;;;;;5012129;28;20033;-75
2022/04/14 13:39:07;;;;;;;22.15;10.75;;;;;;;;;;5011680;28;20030;-76
2022/04/14 13:41:38;;;;;;;24.23;10.98;;;;;;;;;;5007939;28;20034;-74
2022/04/14 13:44:07;;;;;;;28.90;11.93;;;;;;;;;;4994676;28;20038;-73
2022/04/14 13:46:37;;;;;;;32.25;13.60;;;;;;;;;;5009906;28;20153;-73
2022/04/14 13:49:02;;;;;;;31.52;11.45;;;;;;;;;;5002598;28;20470;-72
2022/04/14 13:51:34;;;;;;;18.55;10.73;;;;;;;;;;4992652;28;20117;-74
2022/04/14 13:54:00;;;;;;;;;;;;;;;;;;5010483;28;20021;-72
2022/04/14 13:56:26;;;;;;;26.60;11.82;;;;;;;;;;4994660;28;20008;-74
2022/04/14 13:58:54;;;;;;;23.98;10.48;;;;;;;;;;5015195;28;20026;-72
2022/04/14 14:01:20;;;;;;;25.52;10.55;;;;;;;;;;4993157;28;20087;-73
2022/04/14 14:03:46;;;;;;;25.50;9.32;;;;;;;;;;4999614;28;20029;-72
2022/04/14 14:06:15;;;;;;;27.40;11.15;;;;;;;;;;5006825;28;20505;-72
2022/04/14 14:08:41;;;;;;;27.00;10.32;;;;;;;;;;4999922;28;20030;-72
2022/04/14 14:11:07;;;;;;;23.88;10.43;;;;;;;;;;4992053;28;20026;-72
2022/04/14 14:13:34;;;;;;;21.48;10.88;;;;;;;;;;5015841;28;20038;-74
2022/04/14 14:16:04;;;;;;;26.88;10.07;;;;;;;;;;4998093;28;20519;-74
2022/04/14 14:18:32;;;;;;;28.40;11.95;;;;;;;;;;5018659;28;20104;-76
2022/04/14 14:20:58;;;;;;;23.85;10.65;;;;;;;;;;5006555;28;20029;-74
2022/04/14 14:23:25;;;;;;;27.58;12.77;;;;;;;;;;5014949;28;20045;-76
2022/04/14 14:25:57;;;;;;;25.83;12.25;;;;;;;;;;5002968;28;20022;-74
2022/04/14 14:28:23;;;;;;;31.30;13.27;;;;;;;;;;4998156;28;20030;-75
2022/04/14 14:30:52;;;;;;;26.02;11.60;;;;;;;;;;4999898;28;20512;-75
2022/04/14 14:33:19;;;;;;;24.75;11.10;;;;;;;;;;5005454;28;20132;-74